| Time | Avg. Air Temp | Dew Point | Avg. Rel Humidity | Avg. 2 Min Wind Speed | Max Gust Velocity | MGV Time | MGV Direction | Avg. Spot Wind Velocity |
|---|---|---|---|---|---|---|---|---|
| 2026-05-03 18:55:00 | 7° C | -3° C | 50% | 8 km/h | 13 km/h | 18:54:00 | NE | 7 km/h |
| 17:55:00 | 7° C | -3° C | 49% | 7 km/h | 25 km/h | 17:52:00 | SE | 8 km/h |
| 16:55:00 | 7° C | -4° C | 47% | 4 km/h | 22 km/h | 16:53:00 | N | 5 km/h |
| 15:55:00 | 7° C | -3° C | 50% | 16 km/h | 21 km/h | 15:54:00 | NW | 15 km/h |
| 14:55:00 | 7° C | -3° C | 51% | 6 km/h | 13 km/h | 14:54:00 | NE | 5 km/h |
| 13:55:00 | 6° C | -3° C | 51% | 10 km/h | 17 km/h | 13:55:00 | W | 8 km/h |
| 12:55:00 | 5° C | -3° C | 52% | 16 km/h | 22 km/h | 12:55:00 | NW | 16 km/h |
| 11:55:00 | 5° C | -5° C | 49% | 12 km/h | 16 km/h | 11:54:00 | N | 10 km/h |
| 10:55:00 | 5° C | -5° C | 49% | 10 km/h | 15 km/h | 10:55:00 | NW | 9 km/h |
| 09:55:00 | 4° C | -5° C | 51% | 7 km/h | 13 km/h | 09:55:00 | NW | 5 km/h |
| 08:55:00 | 4° C | -6° C | 49% | 13 km/h | 15 km/h | 08:51:00 | NW | 13 km/h |
| 07:55:00 | 3° C | -6° C | 51% | 15 km/h | 19 km/h | 07:52:00 | NW | 16 km/h |
| 06:55:00 | 3° C | -6° C | 50% | 16 km/h | 18 km/h | 06:54:00 | NW | 15 km/h |
| 05:55:00 | 3° C | -6° C | 51% | 21 km/h | 24 km/h | 05:51:00 | NW | 20 km/h |
| 04:55:00 | 3° C | -6° C | 51% | 18 km/h | 21 km/h | 04:55:00 | NW | 17 km/h |
| 03:55:00 | 3° C | -6° C | 50% | 16 km/h | 19 km/h | 03:51:00 | NW | 17 km/h |
| 02:55:00 | 3° C | -6° C | 50% | 19 km/h | 21 km/h | 02:53:00 | W | 19 km/h |
| 01:55:00 | 4° C | -6° C | 49% | 17 km/h | 22 km/h | 01:54:00 | W | 17 km/h |
| 00:55:00 | 4° C | -6° C | 47% | 11 km/h | 17 km/h | 00:51:00 | W | 11 km/h |
| 23:55:00 | 4° C | -6° C | 47% | 14 km/h | 21 km/h | 23:52:00 | W | 16 km/h |
| 22:55:00 | 5° C | -6° C | 45% | 20 km/h | 24 km/h | 22:54:00 | NW | 22 km/h |
| 21:55:00 | 5° C | -6° C | 43% | 19 km/h | 21 km/h | 21:54:00 | NW | 19 km/h |
| 20:55:00 | 6° C | -7° C | 42% | 19 km/h | 21 km/h | 20:54:00 | NW | 19 km/h |
| 19:55:00 | 5° C | -6° C | 43% | 12 km/h | 16 km/h | 19:52:00 | NW | 14 km/h |
Subpeak Weather
| Time | Avg. Air Temp | Dew Point | Avg. Rel Humidity | Avg. 2 Min Wind Speed | Max Gust Velocity | MGV Time | MGV Direction | Avg. Spot Wind Velocity |
|---|---|---|---|---|---|---|---|---|
| 2026-05-03 18:55:00 | 7° C | -3° C | 50% | 8 km/h | 13 km/h | 18:54:00 | NE | 7 km/h |
| 18:50:00 | 7° C | -3° C | 50% | 5 km/h | 11 km/h | 18:47:00 | N | 5 km/h |
| 18:45:00 | 7° C | -3° C | 50% | 7 km/h | 14 km/h | 18:44:00 | N | 5 km/h |
| 18:40:00 | 7° C | -3° C | 50% | 8 km/h | 15 km/h | 18:39:00 | NE | 8 km/h |
| 18:35:00 | 7° C | -3° C | 50% | 6 km/h | 12 km/h | 18:35:00 | N | 4 km/h |
| 18:30:00 | 7° C | -3° C | 50% | 7 km/h | 11 km/h | 18:30:00 | NE | 3 km/h |
| 18:25:00 | 7° C | -3° C | 50% | 5 km/h | 15 km/h | 18:23:00 | NW | 6 km/h |
| 18:20:00 | 7° C | -3° C | 50% | 2 km/h | 8 km/h | 18:16:00 | NW | 3 km/h |
| 18:15:00 | 7° C | -3° C | 49% | 6 km/h | 18 km/h | 18:12:00 | SE | 5 km/h |
| 18:10:00 | 7° C | -3° C | 49% | 8 km/h | 19 km/h | 18:08:00 | N | 12 km/h |
| 18:05:00 | 7° C | -3° C | 49% | 11 km/h | 19 km/h | 18:02:00 | NW | 11 km/h |
| 18:00:00 | 7° C | -3° C | 48% | 5 km/h | 12 km/h | 18:00:00 | NE | 4 km/h |
| 17:55:00 | 7° C | -3° C | 49% | 7 km/h | 25 km/h | 17:52:00 | SE | 8 km/h |




